Time;durP1;ratioP1;P1;durP2;ratioP2;P2;SDS_P1;SDS_P2;PMS_P1;PMS_P2;Temp;Humidity;BMP_temperature;BMP_pressure;BME280_temperature;BME280_humidity;BME280_pressure;Samples;Min_cycle;Max_cycle;Signal;HPM_P1;HPM_P2
2022/05/13 00:01:49;;;;;;;19.00;8.00;;;;;;;;;;5071764;28;20063;-65
2022/05/13 00:04:14;;;;;;;17.23;8.32;;;;;;;;;;5072159;28;20024;-65
2022/05/13 00:06:39;;;;;;;13.55;7.57;;;;;;;;;;5071967;28;20021;-65
2022/05/13 00:09:05;;;;;;;16.50;7.57;;;;;;;;;;5072110;28;20033;-71
2022/05/13 00:11:30;;;;;;;17.48;8.18;;;;;;;;;;5071357;28;20032;-69
2022/05/13 00:13:56;;;;;;;16.92;7.68;;;;;;;;;;5071783;28;20028;-70
2022/05/13 00:16:22;;;;;;;15.10;7.85;;;;;;;;;;5071326;28;20052;-68
2022/05/13 00:18:47;;;;;;;15.32;7.40;;;;;;;;;;5071689;28;20027;-69
2022/05/13 00:21:13;;;;;;;15.68;7.97;;;;;;;;;;5071356;28;20538;-69
2022/05/13 00:23:39;;;;;;;15.68;7.45;;;;;;;;;;5071824;28;20099;-64
2022/05/13 00:26:04;;;;;;;14.10;7.75;;;;;;;;;;5071541;28;20108;-64
2022/05/13 00:28:29;;;;;;;13.13;7.32;;;;;;;;;;5071726;28;20055;-66
2022/05/13 00:30:55;;;;;;;12.98;7.53;;;;;;;;;;5070588;28;20111;-66
2022/05/13 00:33:21;;;;;;;17.83;8.20;;;;;;;;;;5071142;28;20455;-67
2022/05/13 00:35:48;;;;;;;14.75;7.00;;;;;;;;;;5071486;28;20028;-66
2022/05/13 00:38:14;;;;;;;14.32;7.60;;;;;;;;;;5071389;28;20064;-66
2022/05/13 00:40:41;;;;;;;15.75;7.80;;;;;;;;;;5070978;28;20495;-69
2022/05/13 00:43:09;;;;;;;14.13;7.15;;;;;;;;;;5071453;28;20028;-66
2022/05/13 00:45:35;;;;;;;14.65;7.70;;;;;;;;;;5070745;28;20033;-64
2022/05/13 00:48:01;;;;;;;13.60;7.80;;;;;;;;;;5071627;28;20024;-71
2022/05/13 00:50:30;;;;;;;14.77;7.78;;;;;;;;;;5070786;28;20167;-64
2022/05/13 00:52:57;;;;;;;15.80;7.68;;;;;;;;;;5070955;28;20044;-64
2022/05/13 00:55:28;;;;;;;13.80;6.95;;;;;;;;;;5070954;28;20032;-68
2022/05/13 00:57:55;;;;;;;12.32;6.97;;;;;;;;;;5070934;28;20024;-68
2022/05/13 01:00:21;;;;;;;14.40;7.80;;;;;;;;;;5070786;28;20024;-69
2022/05/13 01:02:48;;;;;;;13.60;7.43;;;;;;;;;;5070773;28;20043;-65
2022/05/13 01:05:16;;;;;;;16.58;7.57;;;;;;;;;;5070745;28;20025;-69
2022/05/13 01:07:42;;;;;;;17.42;8.13;;;;;;;;;;5070542;28;20016;-64
2022/05/13 01:10:12;;;;;;;13.35;7.70;;;;;;;;;;5070482;28;20031;-65
2022/05/13 01:12:42;;;;;;;15.38;7.47;;;;;;;;;;5070446;28;20029;-68
2022/05/13 01:15:16;;;;;;;14.55;7.80;;;;;;;;;;5070681;28;20036;-64
2022/05/13 01:20:38;;;;;;;14.80;7.35;;;;;;;;;;5070895;28;20442;-69
2022/05/13 01:23:10;;;;;;;14.57;7.00;;;;;;;;;;5070364;28;20100;-69
2022/05/13 01:25:42;;;;;;;16.77;8.10;;;;;;;;;;5070419;28;20020;-65
2022/05/13 01:28:14;;;;;;;14.48;7.88;;;;;;;;;;5070743;28;20021;-70
2022/05/13 01:30:43;;;;;;;13.57;8.07;;;;;;;;;;5070116;28;20066;-67
2022/05/13 01:33:10;;;;;;;16.88;8.15;;;;;;;;;;5070332;28;20029;-68
2022/05/13 01:35:41;;;;;;;14.60;7.53;;;;;;;;;;5070263;28;20473;-65
2022/05/13 01:38:07;;;;;;;12.93;7.15;;;;;;;;;;5070307;28;20052;-69
2022/05/13 01:40:32;;;;;;;16.10;7.80;;;;;;;;;;5070153;28;20032;-69
2022/05/13 01:42:58;;;;;;;13.75;7.50;;;;;;;;;;5069851;28;20032;-70
2022/05/13 01:45:23;;;;;;;14.20;7.38;;;;;;;;;;5070115;28;20094;-68
2022/05/13 01:47:49;;;;;;;16.08;7.50;;;;;;;;;;5070021;28;20041;-65
2022/05/13 01:50:14;;;;;;;11.68;7.22;;;;;;;;;;5070240;28;20396;-69
2022/05/13 01:52:39;;;;;;;13.20;6.97;;;;;;;;;;5069855;28;20465;-70
2022/05/13 01:55:05;;;;;;;12.02;7.00;;;;;;;;;;5070289;28;20052;-65
2022/05/13 01:57:31;;;;;;;15.45;7.75;;;;;;;;;;5069742;28;20107;-70
2022/05/13 01:59:56;;;;;;;16.45;7.43;;;;;;;;;;5069786;28;20025;-69
2022/05/13 02:02:22;;;;;;;16.67;7.97;;;;;;;;;;5069572;28;20027;-68
2022/05/13 02:04:48;;;;;;;15.55;7.28;;;;;;;;;;5070082;28;20036;-67
2022/05/13 02:07:13;;;;;;;12.77;7.50;;;;;;;;;;5069855;28;20656;-65
2022/05/13 02:09:38;;;;;;;14.70;7.95;;;;;;;;;;5069856;28;20029;-69
2022/05/13 02:12:05;;;;;;;14.07;8.18;;;;;;;;;;5069507;28;20021;-69
2022/05/13 02:14:30;;;;;;;13.18;7.53;;;;;;;;;;5069784;28;20430;-67
2022/05/13 02:16:59;;;;;;;13.50;7.95;;;;;;;;;;5069418;28;20032;-64
2022/05/13 02:19:24;;;;;;;11.57;6.82;;;;;;;;;;5069672;28;20107;-71
2022/05/13 02:21:50;;;;;;;13.63;7.60;;;;;;;;;;5069848;28;20099;-70
2022/05/13 02:24:16;;;;;;;13.70;7.43;;;;;;;;;;5074351;28;20021;-69
2022/05/13 02:26:41;;;;;;;11.52;7.15;;;;;;;;;;5073833;28;20021;-66
2022/05/13 02:29:07;;;;;;;15.00;7.43;;;;;;;;;;5073937;28;20070;-68
2022/05/13 02:31:32;;;;;;;11.77;7.18;;;;;;;;;;5073105;28;20029;-68
2022/05/13 02:33:58;;;;;;;13.18;7.90;;;;;;;;;;5074072;28;20587;-69
2022/05/13 02:36:25;;;;;;;12.55;7.32;;;;;;;;;;5073628;28;20029;-66
2022/05/13 02:38:51;;;;;;;10.20;6.90;;;;;;;;;;5073443;28;20049;-70
2022/05/13 02:41:16;;;;;;;13.38;7.00;;;;;;;;;;5073777;28;20031;-69
2022/05/13 02:43:53;;;;;;;14.32;7.43;;;;;;;;;;5073515;28;20112;-69
2022/05/13 02:46:27;;;;;;;13.50;7.82;;;;;;;;;;5073805;28;20104;-63
2022/05/13 02:48:53;;;;;;;15.48;8.13;;;;;;;;;;5073243;28;20035;-67
2022/05/13 02:51:20;;;;;;;15.90;7.38;;;;;;;;;;5073202;28;20024;-67
2022/05/13 02:53:46;;;;;;;13.43;7.22;;;;;;;;;;5073179;28;20373;-69
2022/05/13 02:56:11;;;;;;;14.20;7.47;;;;;;;;;;5073750;28;20028;-70
2022/05/13 02:58:38;;;;;;;16.58;7.88;;;;;;;;;;5073656;28;20376;-65
2022/05/13 03:01:05;;;;;;;16.17;7.80;;;;;;;;;;5073162;28;20029;-65
2022/05/13 03:03:30;;;;;;;14.30;8.20;;;;;;;;;;5072765;28;20507;-69
2022/05/13 03:05:57;;;;;;;15.38;8.15;;;;;;;;;;5073345;28;20073;-68
2022/05/13 03:08:23;;;;;;;13.02;7.90;;;;;;;;;;5072684;28;20063;-64
2022/05/13 03:10:48;;;;;;;14.50;8.43;;;;;;;;;;5073357;28;20415;-68
2022/05/13 03:13:18;;;;;;;17.08;8.88;;;;;;;;;;5072577;28;20492;-68
2022/05/13 03:15:44;;;;;;;15.50;9.33;;;;;;;;;;5072905;28;20032;-68
2022/05/13 03:18:09;;;;;;;17.70;8.82;;;;;;;;;;5072803;28;20120;-70
2022/05/13 03:20:36;;;;;;;14.30;8.57;;;;;;;;;;5073066;28;20199;-70
2022/05/13 03:23:01;;;;;;;18.55;8.73;;;;;;;;;;5072762;28;20040;-68
2022/05/13 03:25:27;;;;;;;16.63;8.52;;;;;;;;;;5072839;28;20020;-65
2022/05/13 03:27:53;;;;;;;15.32;8.85;;;;;;;;;;5072533;28;20029;-65
2022/05/13 03:30:20;;;;;;;17.20;9.05;;;;;;;;;;5072547;28;20089;-65
2022/05/13 03:32:45;;;;;;;13.18;8.50;;;;;;;;;;5072311;28;20371;-68
2022/05/13 03:35:13;;;;;;;15.88;7.93;;;;;;;;;;5071598;28;20025;-70
2022/05/13 03:37:39;;;;;;;19.55;8.82;;;;;;;;;;5072449;28;20020;-65
2022/05/13 03:40:05;;;;;;;16.42;8.65;;;;;;;;;;5072395;28;20504;-68
2022/05/13 03:42:30;;;;;;;13.93;8.25;;;;;;;;;;5072077;28;20037;-67
2022/05/13 03:44:56;;;;;;;17.67;9.05;;;;;;;;;;5072772;28;20078;-68
2022/05/13 03:47:22;;;;;;;14.13;7.90;;;;;;;;;;5072234;28;20024;-64
2022/05/13 03:49:47;;;;;;;19.52;8.88;;;;;;;;;;5072827;28;20442;-69
2022/05/13 03:52:14;;;;;;;17.20;8.73;;;;;;;;;;5072154;28;20469;-68
2022/05/13 03:54:39;;;;;;;18.02;8.50;;;;;;;;;;5072390;28;20050;-69
2022/05/13 03:57:06;;;;;;;16.92;8.50;;;;;;;;;;5072217;28;20028;-66
2022/05/13 03:59:33;;;;;;;18.75;8.60;;;;;;;;;;5072123;28;20024;-64
2022/05/13 04:01:58;;;;;;;14.65;8.55;;;;;;;;;;5072018;28;20745;-65
2022/05/13 04:04:24;;;;;;;19.38;7.93;;;;;;;;;;5071824;28;20229;-69
2022/05/13 04:09:35;;;;;;;15.18;8.25;;;;;;;;;;5071846;28;20493;-67
2022/05/13 04:17:29;;;;;;;14.68;8.18;;;;;;;;;;5071999;28;20040;-70
2022/05/13 04:19:55;;;;;;;12.70;8.20;;;;;;;;;;5071568;28;20029;-72
2022/05/13 04:22:24;;;;;;;14.90;8.02;;;;;;;;;;5071571;28;20334;-69
2022/05/13 04:24:52;;;;;;;17.73;8.95;;;;;;;;;;5071502;28;20036;-71
2022/05/13 04:27:18;;;;;;;17.15;9.20;;;;;;;;;;5072026;28;20163;-69
2022/05/13 04:29:43;;;;;;;15.07;8.43;;;;;;;;;;5071241;28;20567;-70
2022/05/13 04:32:09;;;;;;;16.30;8.93;;;;;;;;;;5071152;28;20048;-69
2022/05/13 04:34:34;;;;;;;19.05;9.13;;;;;;;;;;5071008;28;20021;-71
2022/05/13 04:37:02;;;;;;;18.45;8.50;;;;;;;;;;5071445;28;20028;-64
2022/05/13 04:39:28;;;;;;;15.88;8.80;;;;;;;;;;5071048;28;20098;-69
2022/05/13 04:42:55;;;;;;;18.02;8.60;;;;;;;;;;5071690;28;20460;-68
2022/05/13 04:44:48;;;;;;;18.17;8.90;;;;;;;;;;5044395;28;20056;-68
2022/05/13 04:49:58;;;;;;;16.15;8.68;;;;;;;;;;5070996;28;20035;-69
2022/05/13 04:52:24;;;;;;;17.48;9.32;;;;;;;;;;5070880;28;20025;-70
2022/05/13 04:54:50;;;;;;;16.42;9.20;;;;;;;;;;5070753;28;20166;-69
2022/05/13 04:57:15;;;;;;;17.30;9.15;;;;;;;;;;5071151;28;20118;-70
2022/05/13 04:59:40;;;;;;;17.63;9.98;;;;;;;;;;5070577;28;20020;-65
2022/05/13 05:02:06;;;;;;;23.15;9.98;;;;;;;;;;5070977;28;20021;-69
2022/05/13 05:04:31;;;;;;;22.85;9.63;;;;;;;;;;5070714;28;20409;-69
2022/05/13 05:06:57;;;;;;;18.25;9.55;;;;;;;;;;5070670;28;20021;-64
2022/05/13 05:09:22;;;;;;;18.58;9.15;;;;;;;;;;5070566;28;20396;-69
2022/05/13 05:11:47;;;;;;;22.92;9.60;;;;;;;;;;5070448;28;20043;-69
2022/05/13 05:14:13;;;;;;;23.17;10.73;;;;;;;;;;5070323;28;20384;-70
2022/05/13 05:16:38;;;;;;;17.88;9.77;;;;;;;;;;5070658;28;20025;-68
2022/05/13 05:19:04;;;;;;;17.38;10.13;;;;;;;;;;5070413;28;20110;-68
2022/05/13 05:21:30;;;;;;;23.65;10.85;;;;;;;;;;5070862;28;20093;-66
2022/05/13 05:23:55;;;;;;;23.13;10.80;;;;;;;;;;5069969;28;20443;-70
2022/05/13 05:26:21;;;;;;;22.30;11.02;;;;;;;;;;5070358;28;20474;-71
2022/05/13 05:28:47;;;;;;;26.80;11.35;;;;;;;;;;5070038;28;20540;-70
2022/05/13 05:31:13;;;;;;;25.02;11.43;;;;;;;;;;5070112;28;20028;-65
2022/05/13 05:33:39;;;;;;;26.48;11.57;;;;;;;;;;5070232;28;20035;-71
2022/05/13 05:36:05;;;;;;;29.35;11.02;;;;;;;;;;5070503;28;20027;-66
2022/05/13 05:38:31;;;;;;;33.08;11.98;;;;;;;;;;5069963;28;20128;-68
2022/05/13 05:40:58;;;;;;;21.73;10.38;;;;;;;;;;5070199;28;20107;-67
2022/05/13 05:43:24;;;;;;;24.40;10.77;;;;;;;;;;5069588;28;20027;-70
2022/05/13 05:45:50;;;;;;;50.13;11.98;;;;;;;;;;5069785;28;20032;-69
2022/05/13 05:48:22;;;;;;;43.40;11.52;;;;;;;;;;5069965;28;20029;-65
2022/05/13 05:50:51;;;;;;;23.40;10.32;;;;;;;;;;5069969;28;20029;-68
2022/05/13 05:57:13;;;;;;;25.63;10.38;;;;;;;;;;5069917;28;20408;-67
2022/05/13 05:58:47;;;;;;;21.88;9.60;;;;;;;;;;5069565;28;20027;-70
2022/05/13 06:01:13;;;;;;;20.70;8.98;;;;;;;;;;5069744;28;20036;-69
2022/05/13 06:03:39;;;;;;;19.90;8.32;;;;;;;;;;5069770;28;20052;-70
2022/05/13 06:06:05;;;;;;;21.38;8.23;;;;;;;;;;5069848;28;20097;-68
2022/05/13 06:08:31;;;;;;;13.48;6.78;;;;;;;;;;5069775;28;20384;-65
2022/05/13 06:10:57;;;;;;;15.30;7.25;;;;;;;;;;5069542;28;20482;-65
2022/05/13 06:13:22;;;;;;;21.70;6.68;;;;;;;;;;5069740;28;20030;-69
2022/05/13 06:15:48;;;;;;;18.85;7.22;;;;;;;;;;5069441;28;20032;-70
2022/05/13 06:18:13;;;;;;;18.70;7.55;;;;;;;;;;5069545;28;20025;-65
2022/05/13 06:20:39;;;;;;;17.02;7.47;;;;;;;;;;5069556;28;20021;-67
2022/05/13 06:23:05;;;;;;;16.83;7.00;;;;;;;;;;5069472;28;20115;-69
2022/05/13 06:25:30;;;;;;;26.05;7.97;;;;;;;;;;5069753;28;20112;-68
2022/05/13 06:27:59;;;;;;;16.67;7.00;;;;;;;;;;5069884;28;20025;-67
2022/05/13 06:30:29;;;;;;;56.03;9.82;;;;;;;;;;5069316;28;20029;-71
2022/05/13 06:32:55;;;;;;;22.77;7.05;;;;;;;;;;5069090;28;20417;-69
2022/05/13 06:35:22;;;;;;;23.73;7.30;;;;;;;;;;5069196;28;20476;-70
2022/05/13 06:37:48;;;;;;;21.42;7.32;;;;;;;;;;5069399;28;20321;-65
2022/05/13 06:40:14;;;;;;;17.95;6.53;;;;;;;;;;5069442;28;20654;-68
2022/05/13 06:42:39;;;;;;;16.85;5.88;;;;;;;;;;5069443;28;20451;-67
2022/05/13 06:45:06;;;;;;;17.60;6.13;;;;;;;;;;5069460;28;20060;-70
2022/05/13 06:47:32;;;;;;;19.70;6.47;;;;;;;;;;5069520;28;20050;-69
2022/05/13 06:50:03;;;;;;;22.67;7.15;;;;;;;;;;5068940;28;20549;-64
2022/05/13 06:52:29;;;;;;;16.63;6.97;;;;;;;;;;5069300;28;20043;-71
2022/05/13 06:54:56;;;;;;;17.23;6.60;;;;;;;;;;5068488;28;20056;-64
2022/05/13 06:57:21;;;;;;;16.98;7.45;;;;;;;;;;5069644;28;20017;-71
2022/05/13 06:59:47;;;;;;;16.27;8.00;;;;;;;;;;5069164;28;20017;-69
2022/05/13 07:02:17;;;;;;;19.60;7.65;;;;;;;;;;5069746;28;20108;-68
2022/05/13 07:04:43;;;;;;;17.02;8.00;;;;;;;;;;5068905;28;20489;-64
2022/05/13 07:07:10;;;;;;;16.20;7.97;;;;;;;;;;5069171;28;20078;-69
2022/05/13 07:09:36;;;;;;;18.80;7.85;;;;;;;;;;5071839;28;20407;-70
2022/05/13 07:12:02;;;;;;;18.48;7.30;;;;;;;;;;5072809;28;20035;-68
2022/05/13 07:14:27;;;;;;;17.38;7.20;;;;;;;;;;5072530;28;20256;-68
2022/05/13 07:16:54;;;;;;;20.88;7.68;;;;;;;;;;5072973;28;20515;-70
2022/05/13 07:19:19;;;;;;;16.73;8.73;;;;;;;;;;5072801;28;20431;-70
2022/05/13 07:21:46;;;;;;;23.38;7.28;;;;;;;;;;5072706;28;20027;-63
2022/05/13 07:24:12;;;;;;;16.85;7.40;;;;;;;;;;5072410;28;20460;-64
2022/05/13 07:26:38;;;;;;;23.25;7.93;;;;;;;;;;5072421;28;20032;-67
2022/05/13 07:29:05;;;;;;;15.20;7.00;;;;;;;;;;5072673;28;20077;-68
2022/05/13 07:31:31;;;;;;;19.35;6.88;;;;;;;;;;5072232;28;20068;-70
2022/05/13 07:33:56;;;;;;;16.13;6.75;;;;;;;;;;5072105;28;20278;-67
2022/05/13 07:36:22;;;;;;;21.08;7.40;;;;;;;;;;5072507;28;20570;-69
2022/05/13 07:41:31;;;;;;;19.42;6.80;;;;;;;;;;5072099;28;20063;-71
2022/05/13 07:43:57;;;;;;;19.10;7.00;;;;;;;;;;5071977;28;20033;-66
2022/05/13 07:46:23;;;;;;;20.67;6.90;;;;;;;;;;5071874;28;20025;-67
2022/05/13 07:48:48;;;;;;;15.07;7.10;;;;;;;;;;5072190;28;20028;-70
2022/05/13 07:51:14;;;;;;;19.27;6.90;;;;;;;;;;5072122;28;20029;-64
2022/05/13 07:53:40;;;;;;;13.85;6.60;;;;;;;;;;5072220;28;20017;-65
2022/05/13 07:56:06;;;;;;;17.58;6.70;;;;;;;;;;5072073;28;20032;-68
2022/05/13 07:58:32;;;;;;;18.90;7.30;;;;;;;;;;5072706;28;20040;-70
2022/05/13 08:00:58;;;;;;;18.10;7.07;;;;;;;;;;5071579;28;20021;-70
2022/05/13 08:03:26;;;;;;;15.95;7.15;;;;;;;;;;5071757;28;20105;-70
2022/05/13 08:05:52;;;;;;;17.45;7.47;;;;;;;;;;5071717;28;20024;-65
2022/05/13 08:08:21;;;;;;;16.52;7.10;;;;;;;;;;5072079;28;20070;-69
2022/05/13 08:10:50;;;;;;;17.00;7.07;;;;;;;;;;5071824;28;20528;-69
2022/05/13 08:13:16;;;;;;;17.52;7.43;;;;;;;;;;5071884;28;20074;-65
2022/05/13 08:15:42;;;;;;;17.13;7.35;;;;;;;;;;5071307;28;20033;-70
2022/05/13 08:18:08;;;;;;;16.98;6.80;;;;;;;;;;5071955;28;20039;-65
2022/05/13 08:20:35;;;;;;;14.90;5.93;;;;;;;;;;5070754;28;20060;-65
2022/05/13 08:23:00;;;;;;;16.23;6.85;;;;;;;;;;5071749;28;20103;-65
2022/05/13 08:25:26;;;;;;;14.90;7.13;;;;;;;;;;5071035;28;20189;-69
2022/05/13 08:27:52;;;;;;;17.95;6.75;;;;;;;;;;5071500;28;20028;-70
2022/05/13 08:30:19;;;;;;;17.27;6.75;;;;;;;;;;5071676;28;20090;-64
2022/05/13 08:32:44;;;;;;;17.27;6.68;;;;;;;;;;5071680;28;20039;-68
2022/05/13 08:35:12;;;;;;;18.42;6.47;;;;;;;;;;5071271;28;20032;-68
2022/05/13 08:37:46;;;;;;;18.48;6.53;;;;;;;;;;5070964;28;20522;-69
2022/05/13 08:40:42;;;;;;;20.60;6.38;;;;;;;;;;5070876;28;20067;-69
2022/05/13 08:43:13;;;;;;;19.23;6.97;;;;;;;;;;5071493;28;20036;-65
2022/05/13 08:45:44;;;;;;;16.90;7.00;;;;;;;;;;5070720;28;20024;-65
2022/05/13 08:48:14;;;;;;;17.80;6.38;;;;;;;;;;5071184;28;20036;-65
2022/05/13 08:50:58;;;;;;;14.30;6.45;;;;;;;;;;5070713;28;20033;-65
2022/05/13 08:53:50;;;;;;;18.73;6.22;;;;;;;;;;5070804;28;20037;-70
2022/05/13 08:56:25;;;;;;;14.73;5.95;;;;;;;;;;5052972;28;20120;-65
2022/05/13 08:59:05;;;;;;;18.20;6.00;;;;;;;;;;5071401;28;20486;-70
2022/05/13 09:01:35;;;;;;;15.30;5.95;;;;;;;;;;5070494;28;20029;-66
2022/05/13 09:04:09;;;;;;;18.05;6.30;;;;;;;;;;5071030;28;20046;-70
2022/05/13 09:06:40;;;;;;;15.65;5.93;;;;;;;;;;5070506;28;20024;-64
2022/05/13 09:09:09;;;;;;;13.68;6.13;;;;;;;;;;5070884;28;20029;-70
2022/05/13 09:11:41;;;;;;;15.70;5.95;;;;;;;;;;5070155;28;20411;-69
2022/05/13 09:14:22;;;;;;;15.15;6.20;;;;;;;;;;5070417;28;20073;-69
2022/05/13 09:17:06;;;;;;;;;;;;;;;;;;5070976;28;20400;-69
2022/05/13 09:19:35;;;;;;;17.98;5.75;;;;;;;;;;5070631;28;19991;-72
2022/05/13 09:22:07;;;;;;;14.13;5.55;;;;;;;;;;5070348;28;20017;-66
2022/05/13 09:24:32;;;;;;;14.73;5.90;;;;;;;;;;5070683;28;20029;-70
2022/05/13 09:26:58;;;;;;;15.60;5.75;;;;;;;;;;5070115;28;20039;-69
2022/05/13 09:29:23;;;;;;;16.10;5.80;;;;;;;;;;5070229;28;20510;-71
2022/05/13 09:31:55;;;;;;;13.45;5.55;;;;;;;;;;5070382;28;20500;-67
2022/05/13 09:34:26;;;;;;;12.95;5.97;;;;;;;;;;5070618;28;20059;-69
2022/05/13 09:36:51;;;;;;;14.95;5.65;;;;;;;;;;5070439;28;20025;-65
2022/05/13 09:39:21;;;;;;;13.80;5.32;;;;;;;;;;5070045;28;20044;-66
2022/05/13 09:41:48;;;;;;;13.63;5.40;;;;;;;;;;5069883;28;20033;-68
2022/05/13 09:44:22;;;;;;;19.65;5.88;;;;;;;;;;5069658;28;20024;-64
2022/05/13 09:46:51;;;;;;;16.90;5.53;;;;;;;;;;5069677;28;20071;-66
2022/05/13 09:49:36;;;;;;;16.13;5.90;;;;;;;;;;5069970;28;20403;-66
2022/05/13 09:52:10;;;;;;;13.27;5.22;;;;;;;;;;5069743;28;20028;-64
2022/05/13 09:54:38;;;;;;;12.15;5.20;;;;;;;;;;5069685;28;20424;-66
2022/05/13 09:57:08;;;;;;;14.90;5.38;;;;;;;;;;5069905;28;20039;-70
2022/05/13 09:59:37;;;;;;;15.75;5.60;;;;;;;;;;5069884;28;20028;-65
2022/05/13 10:02:21;;;;;;;14.93;5.55;;;;;;;;;;5069368;28;20583;-63
2022/05/13 10:05:09;;;;;;;16.42;5.55;;;;;;;;;;5069439;28;20028;-65
2022/05/13 10:07:35;;;;;;;11.70;5.50;;;;;;;;;;5070009;28;20496;-67
2022/05/13 10:15:39;;;;;;;16.02;5.60;;;;;;;;;;5069479;28;20048;-70
2022/05/13 10:18:29;;;;;;;13.80;5.45;;;;;;;;;;5069407;28;20032;-68
2022/05/13 10:21:15;;;;;;;13.80;5.35;;;;;;;;;;5057242;28;20065;-70
2022/05/13 10:23:44;;;;;;;11.55;5.32;;;;;;;;;;5069593;28;20040;-69
2022/05/13 10:26:15;;;;;;;13.15;5.88;;;;;;;;;;5069504;28;20028;-70
2022/05/13 10:28:46;;;;;;;14.98;5.28;;;;;;;;;;5069648;28;20387;-66
2022/05/13 10:31:22;;;;;;;13.40;5.47;;;;;;;;;;5069373;28;20037;-67
2022/05/13 10:34:09;;;;;;;15.73;5.45;;;;;;;;;;5069631;28;20066;-69
2022/05/13 10:36:54;;;;;;;13.25;5.57;;;;;;;;;;5069585;28;20132;-69
2022/05/13 10:39:41;;;;;;;13.48;5.55;;;;;;;;;;5069148;28;20075;-69
2022/05/13 10:42:20;;;;;;;12.95;5.20;;;;;;;;;;5069683;28;20036;-70
2022/05/13 10:44:49;;;;;;;15.73;5.30;;;;;;;;;;5054680;28;20037;-69
2022/05/13 10:47:34;;;;;;;16.42;5.38;;;;;;;;;;5073267;28;20562;-70
2022/05/13 10:50:00;;;;;;;12.20;4.63;;;;;;;;;;5073414;28;20036;-70
2022/05/13 10:53:03;;;;;;;14.52;5.15;;;;;;;;;;5073183;28;20016;-67
2022/05/13 10:56:05;;;;;;;11.48;4.65;;;;;;;;;;5072908;28;20028;-68
2022/05/13 10:58:46;;;;;;;17.67;5.47;;;;;;;;;;5072944;28;20021;-69
2022/05/13 11:01:40;;;;;;;11.95;4.78;;;;;;;;;;5073103;28;20033;-69
2022/05/13 11:04:10;;;;;;;14.70;4.60;;;;;;;;;;5073564;28;20025;-70
2022/05/13 11:06:55;;;;;;;13.02;4.65;;;;;;;;;;5072895;28;20272;-66
2022/05/13 11:09:33;;;;;;;12.35;4.65;;;;;;;;;;5072879;28;20028;-69
2022/05/13 11:12:14;;;;;;;13.48;4.93;;;;;;;;;;5072697;28;20020;-68
2022/05/13 11:15:09;;;;;;;11.73;4.72;;;;;;;;;;5072676;28;20577;-70
2022/05/13 11:17:41;;;;;;;15.32;5.40;;;;;;;;;;5072727;28;20260;-70
2022/05/13 11:20:19;;;;;;;11.02;4.70;;;;;;;;;;5073014;28;20028;-67
2022/05/13 11:23:12;;;;;;;13.73;4.70;;;;;;;;;;5072556;28;20395;-70
2022/05/13 11:25:57;;;;;;;12.75;4.90;;;;;;;;;;5072689;28;20103;-71
2022/05/13 11:28:34;;;;;;;13.63;4.75;;;;;;;;;;5072325;28;20032;-70
2022/05/13 11:31:22;;;;;;;11.68;5.13;;;;;;;;;;5072396;28;20024;-69
2022/05/13 11:34:02;;;;;;;13.48;4.63;;;;;;;;;;5072149;28;20157;-70
2022/05/13 11:36:55;;;;;;;13.53;5.17;;;;;;;;;;5072428;28;20067;-69
2022/05/13 11:39:43;;;;;;;13.02;4.90;;;;;;;;;;5072457;28;20055;-70
2022/05/13 11:42:26;;;;;;;14.18;4.90;;;;;;;;;;5072301;28;20509;-68
2022/05/13 11:45:39;;;;;;;12.63;5.45;;;;;;;;;;5072250;28;20052;-66
2022/05/13 11:48:22;;;;;;;15.82;4.80;;;;;;;;;;5071240;28;20115;-66
2022/05/13 11:50:48;;;;;;;15.65;5.72;;;;;;;;;;5072209;28;20114;-69
2022/05/13 11:53:49;;;;;;;13.00;4.90;;;;;;;;;;5072259;28;20063;-69
2022/05/13 11:56:29;;;;;;;12.48;5.05;;;;;;;;;;5070982;28;20503;-69
2022/05/13 11:59:03;;;;;;;16.88;5.38;;;;;;;;;;5072238;28;20020;-71
2022/05/13 12:01:37;;;;;;;13.10;4.72;;;;;;;;;;5072122;28;20052;-69
2022/05/13 12:04:15;;;;;;;12.73;4.68;;;;;;;;;;5071820;28;20082;-69
2022/05/13 12:06:50;;;;;;;12.32;4.53;;;;;;;;;;5071503;28;20078;-69
2022/05/13 12:09:48;;;;;;;11.82;4.80;;;;;;;;;;5071634;28;20027;-68
2022/05/13 12:12:26;;;;;;;13.63;4.70;;;;;;;;;;5071879;28;20028;-69
2022/05/13 12:15:06;;;;;;;13.77;4.40;;;;;;;;;;5071583;28;20025;-65
2022/05/13 12:17:34;;;;;;;16.77;4.38;;;;;;;;;;5071925;28;20056;-69
2022/05/13 12:20:43;;;;;;;12.35;4.50;;;;;;;;;;5071539;28;20077;-68
2022/05/13 12:23:21;;;;;;;11.18;4.22;;;;;;;;;;5071327;28;20032;-67
2022/05/13 12:25:53;;;;;;;10.95;3.95;;;;;;;;;;5071233;28;20021;-68
2022/05/13 12:28:18;;;;;;;12.25;4.80;;;;;;;;;;5071394;28;20067;-66
2022/05/13 12:30:49;;;;;;;10.93;3.85;;;;;;;;;;5071218;28;20044;-69
2022/05/13 12:33:18;;;;;;;11.93;3.80;;;;;;;;;;5071257;28;20027;-66
2022/05/13 12:38:51;;;;;;;9.60;4.03;;;;;;;;;;5071179;28;20103;-69
2022/05/13 12:41:24;;;;;;;9.30;3.88;;;;;;;;;;5070868;28;20074;-69
2022/05/13 12:44:15;;;;;;;14.25;4.30;;;;;;;;;;5071166;28;20407;-68
2022/05/13 12:46:48;;;;;;;6.57;3.30;;;;;;;;;;5059211;28;20056;-67
2022/05/13 12:49:47;;;;;;;12.13;3.40;;;;;;;;;;5070789;28;20453;-69
2022/05/13 12:52:15;;;;;;;8.82;3.35;;;;;;;;;;5069970;28;20111;-74
2022/05/13 12:54:51;;;;;;;8.93;3.63;;;;;;;;;;5070541;28;20025;-72
2022/05/13 12:57:33;;;;;;;10.23;3.67;;;;;;;;;;5049688;28;20064;-74
2022/05/13 12:59:59;;;;;;;11.07;4.00;;;;;;;;;;5046419;28;20036;-71
2022/05/13 13:02:30;;;;;;;10.88;3.60;;;;;;;;;;5032340;28;20018;-74
2022/05/13 13:05:04;;;;;;;13.60;3.50;;;;;;;;;;5037897;28;20024;-71
2022/05/13 13:07:33;;;;;;;12.32;3.42;;;;;;;;;;5049273;28;20017;-76
2022/05/13 13:09:59;;;;;;;9.82;3.13;;;;;;;;;;5031372;28;20111;-72
2022/05/13 13:13:04;;;;;;;10.23;3.50;;;;;;;;;;5049429;28;20159;-75
2022/05/13 13:15:46;;;;;;;9.70;3.05;;;;;;;;;;4985363;28;20450;-72
2022/05/13 13:18:12;;;;;;;12.55;3.00;;;;;;;;;;5026903;28;20042;-72
2022/05/13 13:20:48;;;;;;;8.77;3.13;;;;;;;;;;5029710;28;20040;-76
2022/05/13 13:23:15;;;;;;;9.63;3.00;;;;;;;;;;5029764;28;20559;-75
2022/05/13 13:25:43;;;;;;;9.25;2.85;;;;;;;;;;5029189;28;20504;-74
2022/05/13 13:28:12;;;;;;;11.07;2.83;;;;;;;;;;5029673;28;20079;-74
2022/05/13 13:30:51;;;;;;;13.88;3.15;;;;;;;;;;5037591;28;20039;-76
2022/05/13 13:33:17;;;;;;;7.22;2.75;;;;;;;;;;5049417;28;20116;-75
2022/05/13 13:35:45;;;;;;;8.70;2.90;;;;;;;;;;5048919;28;20497;-73
2022/05/13 13:38:14;;;;;;;9.02;2.97;;;;;;;;;;5049027;28;20076;-75
2022/05/13 13:40:43;;;;;;;8.00;3.08;;;;;;;;;;5049040;28;20029;-74
2022/05/13 13:43:22;;;;;;;10.07;2.90;;;;;;;;;;5049106;28;20025;-71
2022/05/13 13:46:09;;;;;;;10.60;2.88;;;;;;;;;;5048321;28;20108;-74
2022/05/13 13:48:48;;;;;;;9.65;2.85;;;;;;;;;;5047890;28;20029;-73
2022/05/13 13:51:27;;;;;;;9.90;2.60;;;;;;;;;;5049196;28;20029;-73
2022/05/13 13:53:56;;;;;;;10.60;2.65;;;;;;;;;;5047767;28;20060;-71
2022/05/13 13:56:23;;;;;;;8.75;2.70;;;;;;;;;;5048198;28;20029;-72
2022/05/13 13:59:03;;;;;;;9.95;2.88;;;;;;;;;;5037841;28;20508;-72
2022/05/13 14:01:29;;;;;;;8.00;2.70;;;;;;;;;;5046241;28;20060;-77
2022/05/13 14:04:13;;;;;;;12.13;2.90;;;;;;;;;;5043228;28;20044;-71
2022/05/13 14:06:41;;;;;;;8.88;3.17;;;;;;;;;;5047790;28;20025;-75
2022/05/13 14:09:16;;;;;;;8.85;3.00;;;;;;;;;;5050248;28;20028;-70
2022/05/13 14:11:41;;;;;;;10.30;2.80;;;;;;;;;;5059646;28;20032;-72
2022/05/13 14:14:08;;;;;;;10.32;3.08;;;;;;;;;;5059172;28;20078;-71
2022/05/13 14:16:43;;;;;;;11.95;3.13;;;;;;;;;;5057308;28;20032;-72
2022/05/13 14:19:11;;;;;;;12.32;3.20;;;;;;;;;;5056664;28;20441;-74
2022/05/13 14:21:47;;;;;;;8.40;2.80;;;;;;;;;;5059406;28;20029;-73
2022/05/13 14:24:13;;;;;;;14.48;3.00;;;;;;;;;;5058565;28;20054;-68
2022/05/13 14:26:52;;;;;;;10.48;2.90;;;;;;;;;;5048387;28;20377;-71
2022/05/13 14:29:18;;;;;;;11.55;2.90;;;;;;;;;;5049422;28;20068;-72
2022/05/13 14:31:45;;;;;;;11.25;3.05;;;;;;;;;;5049558;28;20064;-72
2022/05/13 14:34:20;;;;;;;10.20;3.08;;;;;;;;;;5050475;28;20021;-65
2022/05/13 14:36:58;;;;;;;10.73;3.15;;;;;;;;;;5048254;28;20017;-73
2022/05/13 14:42:17;;;;;;;9.65;2.80;;;;;;;;;;5040557;28;20083;-70
2022/05/13 14:44:48;;;;;;;9.50;2.80;;;;;;;;;;5048471;28;20029;-69
2022/05/13 14:47:26;;;;;;;10.43;3.03;;;;;;;;;;5050795;28;20151;-69
2022/05/13 14:49:57;;;;;;;8.43;2.92;;;;;;;;;;5046677;28;20025;-72
2022/05/13 14:52:25;;;;;;;9.73;2.70;;;;;;;;;;5056647;28;20201;-68
2022/05/13 14:54:53;;;;;;;10.00;2.90;;;;;;;;;;5049299;28;20033;-73
2022/05/13 14:57:19;;;;;;;11.05;3.10;;;;;;;;;;5046358;28;20112;-72
2022/05/13 14:59:54;;;;;;;11.25;3.20;;;;;;;;;;5046119;28;20021;-72
2022/05/13 15:02:28;;;;;;;14.07;3.35;;;;;;;;;;5046686;28;20037;-72
2022/05/13 15:04:57;;;;;;;11.38;3.20;;;;;;;;;;5045703;28;20024;-70
2022/05/13 15:07:38;;;;;;;11.68;3.05;;;;;;;;;;5046895;28;20033;-71
2022/05/13 15:10:10;;;;;;;9.15;3.00;;;;;;;;;;5046741;28;20033;-73
2022/05/13 15:12:37;;;;;;;8.88;2.83;;;;;;;;;;5047659;28;20029;-73
2022/05/13 15:15:03;;;;;;;8.40;3.20;;;;;;;;;;5047304;28;20117;-74
2022/05/13 15:17:49;;;;;;;11.73;3.10;;;;;;;;;;5047323;28;20467;-74
2022/05/13 15:20:15;;;;;;;9.05;2.53;;;;;;;;;;5048300;28;20405;-73
2022/05/13 15:22:42;;;;;;;11.77;3.10;;;;;;;;;;5048879;28;20021;-72